sensor_id;sensor_type;location;lat;lon;timestamp;P1;durP1;ratioP1;P2;durP2;ratioP2
55350;SDS011;62194;49.480;10.986;2023-07-13T00:00:01;3.70;;;2.70;;
55350;SDS011;62194;49.480;10.986;2023-07-13T00:00:06;3.38;;;2.45;;
55350;SDS011;62194;49.480;10.986;2023-07-13T00:00:15;2.70;;;1.98;;
55350;SDS011;62194;49.480;10.986;2023-07-13T00:00:21;2.70;;;1.73;;
55350;SDS011;62194;49.480;10.986;2023-07-13T00:00:27;2.70;;;1.65;;
55350;SDS011;62194;49.480;10.986;2023-07-13T00:00:32;2.93;;;1.67;;
55350;SDS011;62194;49.480;10.986;2023-07-13T00:00:38;3.20;;;1.80;;
55350;SDS011;62194;49.480;10.986;2023-07-13T00:00:43;3.33;;;1.80;;
55350;SDS011;62194;49.480;10.986;2023-07-13T00:00:48;3.10;;;1.70;;
55350;SDS011;62194;49.480;10.986;2023-07-13T00:00:53;3.00;;;1.70;;
55350;SDS011;62194;49.480;10.986;2023-07-13T00:00:59;3.05;;;1.83;;
55350;SDS011;62194;49.480;10.986;2023-07-13T00:01:04;3.10;;;1.80;;
55350;SDS011;62194;49.480;10.986;2023-07-13T00:01:09;3.10;;;1.80;;
55350;SDS011;62194;49.480;10.986;2023-07-13T00:01:16;2.70;;;1.80;;
55350;SDS011;62194;49.480;10.986;2023-07-13T00:01:21;3.03;;;1.80;;
55350;SDS011;62194;49.480;10.986;2023-07-13T00:01:29;2.90;;;1.63;;
55350;SDS011;62194;49.480;10.986;2023-07-13T00:01:34;2.55;;;1.50;;
55350;SDS011;62194;49.480;10.986;2023-07-13T00:01:39;2.50;;;1.50;;
55350;SDS011;62194;49.480;10.986;2023-07-13T00:01:44;2.77;;;1.50;;
55350;SDS011;62194;49.480;10.986;2023-07-13T00:01:51;2.70;;;1.54;;
55350;SDS011;62194;49.480;10.986;2023-07-13T00:01:56;2.80;;;1.90;;
55350;SDS011;62194;49.480;10.986;2023-07-13T00:02:01;3.03;;;1.90;;
55350;SDS011;62194;49.480;10.986;2023-07-13T00:02:07;2.92;;;1.90;;
55350;SDS011;62194;49.480;10.986;2023-07-13T00:02:12;2.87;;;1.80;;
55350;SDS011;62194;49.480;10.986;2023-07-13T00:02:19;3.66;;;1.80;;
55350;SDS011;62194;49.480;10.986;2023-07-13T00:02:24;3.60;;;1.67;;
55350;SDS011;62194;49.480;10.986;2023-07-13T00:02:31;3.20;;;1.50;;
55350;SDS011;62194;49.480;10.986;2023-07-13T00:02:37;3.57;;;1.53;;
55350;SDS011;62194;49.480;10.986;2023-07-13T00:02:42;3.50;;;1.60;;
55350;SDS011;62194;49.480;10.986;2023-07-13T00:02:48;2.70;;;1.65;;
55350;SDS011;62194;49.480;10.986;2023-07-13T00:02:53;2.77;;;1.70;;
55350;SDS011;62194;49.480;10.986;2023-07-13T00:02:59;3.08;;;1.70;;
55350;SDS011;62194;49.480;10.986;2023-07-13T00:03:04;3.23;;;1.70;;
55350;SDS011;62194;49.480;10.986;2023-07-13T00:03:09;3.10;;;1.70;;
55350;SDS011;62194;49.480;10.986;2023-07-13T00:03:18;3.03;;;1.50;;
55350;SDS011;62194;49.480;10.986;2023-07-13T00:03:23;3.13;;;1.50;;
55350;SDS011;62194;49.480;10.986;2023-07-13T00:03:29;3.00;;;1.48;;
55350;SDS011;62194;49.480;10.986;2023-07-13T00:03:39;2.72;;;1.50;;
55350;SDS011;62194;49.480;10.986;2023-07-13T00:03:46;2.63;;;1.58;;
55350;SDS011;62194;49.480;10.986;2023-07-13T00:03:51;2.63;;;1.60;;
55350;SDS011;62194;49.480;10.986;2023-07-13T00:03:56;2.30;;;1.50;;
55350;SDS011;62194;49.480;10.986;2023-07-13T00:04:02;2.38;;;1.58;;
55350;SDS011;62194;49.480;10.986;2023-07-13T00:04:07;2.70;;;1.60;;
55350;SDS011;62194;49.480;10.986;2023-07-13T00:04:13;3.28;;;1.70;;
55350;SDS011;62194;49.480;10.986;2023-07-13T00:04:19;3.30;;;1.60;;
55350;SDS011;62194;49.480;10.986;2023-07-13T00:04:25;3.50;;;1.60;;
55350;SDS011;62194;49.480;10.986;2023-07-13T00:04:30;3.90;;;1.67;;
55350;SDS011;62194;49.480;10.986;2023-07-13T00:04:36;3.58;;;1.60;;
55350;SDS011;62194;49.480;10.986;2023-07-13T00:04:41;3.07;;;1.50;;
55350;SDS011;62194;49.480;10.986;2023-07-13T00:04:46;2.93;;;1.60;;
55350;SDS011;62194;49.480;10.986;2023-07-13T00:04:51;2.37;;;1.50;;
55350;SDS011;62194;49.480;10.986;2023-07-13T00:04:57;2.17;;;1.48;;
55350;SDS011;62194;49.480;10.986;2023-07-13T00:05:02;1.60;;;1.37;;
55350;SDS011;62194;49.480;10.986;2023-07-13T00:05:08;1.83;;;1.42;;
55350;SDS011;62194;49.480;10.986;2023-07-13T00:05:13;1.80;;;1.40;;
55350;SDS011;62194;49.480;10.986;2023-07-13T00:05:21;1.90;;;1.53;;
55350;SDS011;62194;49.480;10.986;2023-07-13T00:05:27;2.10;;;1.60;;
55350;SDS011;62194;49.480;10.986;2023-07-13T00:05:32;2.20;;;1.60;;
55350;SDS011;62194;49.480;10.986;2023-07-13T00:05:37;2.20;;;1.50;;
55350;SDS011;62194;49.480;10.986;2023-07-13T00:05:43;2.37;;;1.60;;
55350;SDS011;62194;49.480;10.986;2023-07-13T00:05:56;2.27;;;1.53;;
55350;SDS011;62194;49.480;10.986;2023-07-13T00:06:01;2.40;;;1.66;;
55350;SDS011;62194;49.480;10.986;2023-07-13T00:06:08;2.73;;;1.63;;
55350;SDS011;62194;49.480;10.986;2023-07-13T00:06:13;2.77;;;1.60;;
55350;SDS011;62194;49.480;10.986;2023-07-13T00:06:18;3.20;;;1.52;;
55350;SDS011;62194;49.480;10.986;2023-07-13T00:06:25;3.80;;;1.60;;
55350;SDS011;62194;49.480;10.986;2023-07-13T00:06:30;3.53;;;1.60;;
55350;SDS011;62194;49.480;10.986;2023-07-13T00:06:37;3.65;;;1.70;;
55350;SDS011;62194;49.480;10.986;2023-07-13T00:06:43;3.50;;;1.80;;
55350;SDS011;62194;49.480;10.986;2023-07-13T00:06:49;3.06;;;1.68;;
55350;SDS011;62194;49.480;10.986;2023-07-13T00:06:55;2.77;;;1.63;;
55350;SDS011;62194;49.480;10.986;2023-07-13T00:07:00;3.27;;;1.70;;
55350;SDS011;62194;49.480;10.986;2023-07-13T00:07:06;3.72;;;1.70;;
55350;SDS011;62194;49.480;10.986;2023-07-13T00:07:12;3.90;;;1.90;;
55350;SDS011;62194;49.480;10.986;2023-07-13T00:07:19;3.88;;;2.00;;
55350;SDS011;62194;49.480;10.986;2023-07-13T00:07:28;3.91;;;1.98;;
55350;SDS011;62194;49.480;10.986;2023-07-13T00:07:34;3.27;;;2.00;;
55350;SDS011;62194;49.480;10.986;2023-07-13T00:07:39;2.85;;;1.90;;
55350;SDS011;62194;49.480;10.986;2023-07-13T00:07:44;2.70;;;1.80;;
55350;SDS011;62194;49.480;10.986;2023-07-13T00:07:52;2.50;;;1.73;;
55350;SDS011;62194;49.480;10.986;2023-07-13T00:07:57;2.23;;;1.70;;
55350;SDS011;62194;49.480;10.986;2023-07-13T00:08:02;2.25;;;1.67;;
55350;SDS011;62194;49.480;10.986;2023-07-13T00:08:08;2.27;;;1.60;;
55350;SDS011;62194;49.480;10.986;2023-07-13T00:08:13;2.47;;;1.52;;
55350;SDS011;62194;49.480;10.986;2023-07-13T00:08:19;2.73;;;1.50;;
55350;SDS011;62194;49.480;10.986;2023-07-13T00:08:24;2.87;;;1.57;;
55350;SDS011;62194;49.480;10.986;2023-07-13T00:08:30;2.50;;;1.43;;
55350;SDS011;62194;49.480;10.986;2023-07-13T00:08:35;2.44;;;1.44;;
55350;SDS011;62194;49.480;10.986;2023-07-13T00:08:41;2.47;;;1.50;;
55350;SDS011;62194;49.480;10.986;2023-07-13T00:08:46;2.53;;;1.60;;
55350;SDS011;62194;49.480;10.986;2023-07-13T00:08:52;2.28;;;1.55;;
55350;SDS011;62194;49.480;10.986;2023-07-13T00:08:58;2.20;;;1.50;;
55350;SDS011;62194;49.480;10.986;2023-07-13T00:09:03;2.83;;;1.52;;
55350;SDS011;62194;49.480;10.986;2023-07-13T00:09:08;2.43;;;1.50;;
55350;SDS011;62194;49.480;10.986;2023-07-13T00:09:15;2.38;;;1.50;;
55350;SDS011;62194;49.480;10.986;2023-07-13T00:09:21;2.33;;;1.45;;
55350;SDS011;62194;49.480;10.986;2023-07-13T00:09:27;2.40;;;1.40;;
55350;SDS011;62194;49.480;10.986;2023-07-13T00:09:32;2.07;;;1.30;;
55350;SDS011;62194;49.480;10.986;2023-07-13T00:09:37;2.20;;;1.37;;
55350;SDS011;62194;49.480;10.986;2023-07-13T00:09:42;2.30;;;1.50;;
55350;SDS011;62194;49.480;10.986;2023-07-13T00:09:47;2.33;;;1.53;;
55350;SDS011;62194;49.480;10.986;2023-07-13T00:09:53;2.60;;;1.70;;
55350;SDS011;62194;49.480;10.986;2023-07-13T00:09:58;2.55;;;1.70;;
55350;SDS011;62194;49.480;10.986;2023-07-13T00:10:04;2.30;;;1.77;;
55350;SDS011;62194;49.480;10.986;2023-07-13T00:10:09;2.38;;;1.75;;
55350;SDS011;62194;49.480;10.986;2023-07-13T00:10:14;3.07;;;1.60;;
55350;SDS011;62194;49.480;10.986;2023-07-13T00:10:20;2.87;;;1.50;;
55350;SDS011;62194;49.480;10.986;2023-07-13T00:10:25;2.95;;;1.52;;
55350;SDS011;62194;49.480;10.986;2023-07-13T00:10:31;3.17;;;1.60;;
55350;SDS011;62194;49.480;10.986;2023-07-13T00:10:40;3.17;;;1.60;;
55350;SDS011;62194;49.480;10.986;2023-07-13T00:10:45;2.67;;;1.60;;
55350;SDS011;62194;49.480;10.986;2023-07-13T00:10:51;2.30;;;1.60;;
55350;SDS011;62194;49.480;10.986;2023-07-13T00:11:02;2.60;;;1.58;;
55350;SDS011;62194;49.480;10.986;2023-07-13T00:11:07;2.60;;;1.52;;
55350;SDS011;62194;49.480;10.986;2023-07-13T00:11:16;2.55;;;1.50;;
55350;SDS011;62194;49.480;10.986;2023-07-13T00:11:21;2.60;;;1.50;;
55350;SDS011;62194;49.480;10.986;2023-07-13T00:11:27;2.33;;;1.47;;
55350;SDS011;62194;49.480;10.986;2023-07-13T00:11:32;2.38;;;1.45;;
55350;SDS011;62194;49.480;10.986;2023-07-13T00:11:38;1.97;;;1.40;;
55350;SDS011;62194;49.480;10.986;2023-07-13T00:11:43;1.97;;;1.40;;
55350;SDS011;62194;49.480;10.986;2023-07-13T00:11:55;1.90;;;1.48;;
55350;SDS011;62194;49.480;10.986;2023-07-13T00:12:01;1.88;;;1.50;;
55350;SDS011;62194;49.480;10.986;2023-07-13T00:12:21;2.20;;;1.56;;
55350;SDS011;62194;49.480;10.986;2023-07-13T00:12:29;2.56;;;1.54;;
55350;SDS011;62194;49.480;10.986;2023-07-13T00:12:35;2.95;;;1.50;;
55350;SDS011;62194;49.480;10.986;2023-07-13T00:12:41;2.92;;;1.50;;
55350;SDS011;62194;49.480;10.986;2023-07-13T00:12:46;2.85;;;1.55;;
55350;SDS011;62194;49.480;10.986;2023-07-13T00:12:51;2.37;;;1.40;;
55350;SDS011;62194;49.480;10.986;2023-07-13T00:12:59;2.17;;;1.50;;
55350;SDS011;62194;49.480;10.986;2023-07-13T00:13:08;1.70;;;1.43;;
55350;SDS011;62194;49.480;10.986;2023-07-13T00:13:14;2.07;;;1.40;;
55350;SDS011;62194;49.480;10.986;2023-07-13T00:13:19;2.20;;;1.40;;
55350;SDS011;62194;49.480;10.986;2023-07-13T00:13:24;2.40;;;1.40;;
55350;SDS011;62194;49.480;10.986;2023-07-13T00:13:30;2.73;;;1.40;;
55350;SDS011;62194;49.480;10.986;2023-07-13T00:13:35;2.97;;;1.50;;
55350;SDS011;62194;49.480;10.986;2023-07-13T00:13:43;2.73;;;1.50;;
55350;SDS011;62194;49.480;10.986;2023-07-13T00:13:48;2.65;;;1.50;;
55350;SDS011;62194;49.480;10.986;2023-07-13T00:13:54;2.73;;;1.50;;
55350;SDS011;62194;49.480;10.986;2023-07-13T00:13:59;2.65;;;1.42;;
55350;SDS011;62194;49.480;10.986;2023-07-13T00:14:19;2.50;;;1.37;;
55350;SDS011;62194;49.480;10.986;2023-07-13T00:14:25;2.80;;;1.50;;
55350;SDS011;62194;49.480;10.986;2023-07-13T00:14:31;2.97;;;1.63;;
55350;SDS011;62194;49.480;10.986;2023-07-13T00:14:39;3.12;;;1.72;;
55350;SDS011;62194;49.480;10.986;2023-07-13T00:14:44;3.10;;;1.63;;
55350;SDS011;62194;49.480;10.986;2023-07-13T00:14:50;3.10;;;1.60;;
55350;SDS011;62194;49.480;10.986;2023-07-13T00:15:00;3.10;;;1.58;;
55350;SDS011;62194;49.480;10.986;2023-07-13T00:15:07;3.30;;;1.33;;
55350;SDS011;62194;49.480;10.986;2023-07-13T00:15:14;2.84;;;1.40;;
55350;SDS011;62194;49.480;10.986;2023-07-13T00:15:22;2.83;;;1.50;;
55350;SDS011;62194;49.480;10.986;2023-07-13T00:15:28;2.94;;;1.60;;
55350;SDS011;62194;49.480;10.986;2023-07-13T00:15:35;3.03;;;1.70;;
55350;SDS011;62194;49.480;10.986;2023-07-13T00:15:40;2.92;;;1.70;;
55350;SDS011;62194;49.480;10.986;2023-07-13T00:15:46;2.80;;;1.60;;
55350;SDS011;62194;49.480;10.986;2023-07-13T00:15:51;2.93;;;1.60;;
55350;SDS011;62194;49.480;10.986;2023-07-13T00:15:58;2.53;;;1.43;;
55350;SDS011;62194;49.480;10.986;2023-07-13T00:16:04;2.38;;;1.40;;
55350;SDS011;62194;49.480;10.986;2023-07-13T00:16:10;2.50;;;1.50;;
55350;SDS011;62194;49.480;10.986;2023-07-13T00:16:16;2.53;;;1.50;;
55350;SDS011;62194;49.480;10.986;2023-07-13T00:16:21;2.07;;;1.47;;
55350;SDS011;62194;49.480;10.986;2023-07-13T00:16:26;2.50;;;1.50;;
55350;SDS011;62194;49.480;10.986;2023-07-13T00:16:32;2.60;;;1.60;;
55350;SDS011;62194;49.480;10.986;2023-07-13T00:16:38;2.37;;;1.40;;
55350;SDS011;62194;49.480;10.986;2023-07-13T00:16:45;2.16;;;1.40;;
55350;SDS011;62194;49.480;10.986;2023-07-13T00:16:50;2.13;;;1.40;;
55350;SDS011;62194;49.480;10.986;2023-07-13T00:16:56;2.00;;;1.40;;
55350;SDS011;62194;49.480;10.986;2023-07-13T00:17:01;2.13;;;1.40;;
55350;SDS011;62194;49.480;10.986;2023-07-13T00:17:06;2.07;;;1.43;;
55350;SDS011;62194;49.480;10.986;2023-07-13T00:17:11;2.00;;;1.40;;
55350;SDS011;62194;49.480;10.986;2023-07-13T00:17:18;2.10;;;1.40;;
55350;SDS011;62194;49.480;10.986;2023-07-13T00:17:23;2.70;;;1.40;;
55350;SDS011;62194;49.480;10.986;2023-07-13T00:17:28;2.90;;;1.40;;
55350;SDS011;62194;49.480;10.986;2023-07-13T00:17:33;2.70;;;1.40;;
55350;SDS011;62194;49.480;10.986;2023-07-13T00:17:39;2.83;;;1.40;;
55350;SDS011;62194;49.480;10.986;2023-07-13T00:17:44;2.80;;;1.40;;
55350;SDS011;62194;49.480;10.986;2023-07-13T00:17:50;2.90;;;1.40;;
55350;SDS011;62194;49.480;10.986;2023-07-13T00:17:55;1.95;;;1.40;;
55350;SDS011;62194;49.480;10.986;2023-07-13T00:18:00;1.87;;;1.37;;
55350;SDS011;62194;49.480;10.986;2023-07-13T00:18:06;2.10;;;1.40;;
55350;SDS011;62194;49.480;10.986;2023-07-13T00:18:11;2.33;;;1.40;;
55350;SDS011;62194;49.480;10.986;2023-07-13T00:18:16;2.30;;;1.40;;
55350;SDS011;62194;49.480;10.986;2023-07-13T00:18:21;2.50;;;1.47;;
55350;SDS011;62194;49.480;10.986;2023-07-13T00:18:26;2.63;;;1.52;;
55350;SDS011;62194;49.480;10.986;2023-07-13T00:18:35;2.80;;;1.60;;
55350;SDS011;62194;49.480;10.986;2023-07-13T00:18:40;2.80;;;1.60;;
55350;SDS011;62194;49.480;10.986;2023-07-13T00:18:46;2.50;;;1.57;;
55350;SDS011;62194;49.480;10.986;2023-07-13T00:18:51;2.30;;;1.50;;
55350;SDS011;62194;49.480;10.986;2023-07-13T00:18:57;2.23;;;1.53;;
55350;SDS011;62194;49.480;10.986;2023-07-13T00:19:05;2.88;;;1.60;;
55350;SDS011;62194;49.480;10.986;2023-07-13T00:19:11;2.90;;;1.52;;
55350;SDS011;62194;49.480;10.986;2023-07-13T00:19:17;3.13;;;1.58;;
55350;SDS011;62194;49.480;10.986;2023-07-13T00:19:22;3.37;;;1.50;;
55350;SDS011;62194;49.480;10.986;2023-07-13T00:19:27;3.30;;;1.40;;
55350;SDS011;62194;49.480;10.986;2023-07-13T00:19:33;2.83;;;1.50;;
55350;SDS011;62194;49.480;10.986;2023-07-13T00:19:40;2.82;;;1.58;;
55350;SDS011;62194;49.480;10.986;2023-07-13T00:19:45;2.87;;;1.60;;
55350;SDS011;62194;49.480;10.986;2023-07-13T00:19:50;2.83;;;1.63;;
55350;SDS011;62194;49.480;10.986;2023-07-13T00:19:57;3.08;;;1.70;;
55350;SDS011;62194;49.480;10.986;2023-07-13T00:20:03;2.80;;;1.50;;
55350;SDS011;62194;49.480;10.986;2023-07-13T00:20:09;2.80;;;1.52;;
55350;SDS011;62194;49.480;10.986;2023-07-13T00:20:14;2.67;;;1.53;;
55350;SDS011;62194;49.480;10.986;2023-07-13T00:20:20;2.43;;;1.47;;
55350;SDS011;62194;49.480;10.986;2023-07-13T00:20:26;1.95;;;1.48;;
55350;SDS011;62194;49.480;10.986;2023-07-13T00:20:32;1.70;;;1.40;;
55350;SDS011;62194;49.480;10.986;2023-07-13T00:20:38;1.73;;;1.27;;
55350;SDS011;62194;49.480;10.986;2023-07-13T00:20:43;1.73;;;1.27;;
55350;SDS011;62194;49.480;10.986;2023-07-13T00:20:48;2.17;;;1.23;;
55350;SDS011;62194;49.480;10.986;2023-07-13T00:20:54;2.40;;;1.20;;
55350;SDS011;62194;49.480;10.986;2023-07-13T00:20:59;2.53;;;1.27;;
55350;SDS011;62194;49.480;10.986;2023-07-13T00:21:10;2.50;;;1.37;;
55350;SDS011;62194;49.480;10.986;2023-07-13T00:21:15;2.77;;;1.40;;
55350;SDS011;62194;49.480;10.986;2023-07-13T00:21:20;2.47;;;1.50;;
55350;SDS011;62194;49.480;10.986;2023-07-13T00:21:26;2.40;;;1.50;;
55350;SDS011;62194;49.480;10.986;2023-07-13T00:21:31;2.27;;;1.40;;
55350;SDS011;62194;49.480;10.986;2023-07-13T00:21:36;2.33;;;1.33;;
55350;SDS011;62194;49.480;10.986;2023-07-13T00:21:42;2.22;;;1.35;;
55350;SDS011;62194;49.480;10.986;2023-07-13T00:21:47;2.00;;;1.30;;
55350;SDS011;62194;49.480;10.986;2023-07-13T00:21:52;1.90;;;1.20;;
55350;SDS011;62194;49.480;10.986;2023-07-13T00:22:00;2.10;;;1.22;;
55350;SDS011;62194;49.480;10.986;2023-07-13T00:22:06;2.70;;;1.30;;
55350;SDS011;62194;49.480;10.986;2023-07-13T00:22:11;2.67;;;1.20;;
55350;SDS011;62194;49.480;10.986;2023-07-13T00:22:16;3.33;;;1.33;;
55350;SDS011;62194;49.480;10.986;2023-07-13T00:22:23;3.90;;;1.44;;
55350;SDS011;62194;49.480;10.986;2023-07-13T00:22:30;4.62;;;1.50;;
55350;SDS011;62194;49.480;10.986;2023-07-13T00:22:35;4.28;;;1.48;;
55350;SDS011;62194;49.480;10.986;2023-07-13T00:22:40;4.23;;;1.50;;
55350;SDS011;62194;49.480;10.986;2023-07-13T00:22:46;3.50;;;1.47;;
55350;SDS011;62194;49.480;10.986;2023-07-13T00:22:52;3.08;;;1.30;;
55350;SDS011;62194;49.480;10.986;2023-07-13T00:23:00;2.13;;;1.30;;
55350;SDS011;62194;49.480;10.986;2023-07-13T00:23:05;2.28;;;1.40;;
55350;SDS011;62194;49.480;10.986;2023-07-13T00:23:10;2.50;;;1.47;;
55350;SDS011;62194;49.480;10.986;2023-07-13T00:23:16;2.57;;;1.50;;
55350;SDS011;62194;49.480;10.986;2023-07-13T00:23:22;2.70;;;1.50;;
55350;SDS011;62194;49.480;10.986;2023-07-13T00:23:28;2.83;;;1.52;;
55350;SDS011;62194;49.480;10.986;2023-07-13T00:23:36;2.73;;;1.50;;
55350;SDS011;62194;49.480;10.986;2023-07-13T00:23:42;3.29;;;1.50;;
55350;SDS011;62194;49.480;10.986;2023-07-13T00:23:48;3.55;;;1.55;;
55350;SDS011;62194;49.480;10.986;2023-07-13T00:23:53;3.30;;;1.52;;
55350;SDS011;62194;49.480;10.986;2023-07-13T00:23:58;3.07;;;1.40;;
55350;SDS011;62194;49.480;10.986;2023-07-13T00:24:06;2.95;;;1.38;;
55350;SDS011;62194;49.480;10.986;2023-07-13T00:24:13;2.20;;;1.30;;
55350;SDS011;62194;49.480;10.986;2023-07-13T00:24:18;2.10;;;1.20;;
55350;SDS011;62194;49.480;10.986;2023-07-13T00:24:28;2.35;;;1.35;;
55350;SDS011;62194;49.480;10.986;2023-07-13T00:24:34;2.60;;;1.45;;
55350;SDS011;62194;49.480;10.986;2023-07-13T00:24:40;2.32;;;1.50;;
55350;SDS011;62194;49.480;10.986;2023-07-13T00:24:46;2.25;;;1.50;;
55350;SDS011;62194;49.480;10.986;2023-07-13T00:24:52;2.17;;;1.40;;
55350;SDS011;62194;49.480;10.986;2023-07-13T00:24:58;1.85;;;1.27;;
55350;SDS011;62194;49.480;10.986;2023-07-13T00:25:03;1.77;;;1.30;;
55350;SDS011;62194;49.480;10.986;2023-07-13T00:25:10;1.77;;;1.30;;
55350;SDS011;62194;49.480;10.986;2023-07-13T00:25:15;1.60;;;1.32;;
55350;SDS011;62194;49.480;10.986;2023-07-13T00:25:21;1.60;;;1.40;;
55350;SDS011;62194;49.480;10.986;2023-07-13T00:25:26;1.70;;;1.42;;
55350;SDS011;62194;49.480;10.986;2023-07-13T00:25:33;1.80;;;1.45;;
55350;SDS011;62194;49.480;10.986;2023-07-13T00:25:40;2.07;;;1.40;;
55350;SDS011;62194;49.480;10.986;2023-07-13T00:25:45;2.38;;;1.40;;
55350;SDS011;62194;49.480;10.986;2023-07-13T00:25:51;2.53;;;1.40;;
55350;SDS011;62194;49.480;10.986;2023-07-13T00:25:56;3.58;;;1.48;;
55350;SDS011;62194;49.480;10.986;2023-07-13T00:26:03;3.30;;;1.40;;
55350;SDS011;62194;49.480;10.986;2023-07-13T00:26:09;3.05;;;1.40;;
55350;SDS011;62194;49.480;10.986;2023-07-13T00:26:15;2.88;;;1.40;;
55350;SDS011;62194;49.480;10.986;2023-07-13T00:26:21;2.74;;;1.40;;
55350;SDS011;62194;49.480;10.986;2023-07-13T00:26:26;2.13;;;1.43;;
55350;SDS011;62194;49.480;10.986;2023-07-13T00:26:32;2.90;;;1.60;;
55350;SDS011;62194;49.480;10.986;2023-07-13T00:26:37;3.08;;;1.58;;
55350;SDS011;62194;49.480;10.986;2023-07-13T00:26:42;3.17;;;1.67;;
55350;SDS011;62194;49.480;10.986;2023-07-13T00:26:51;2.78;;;1.57;;
55350;SDS011;62194;49.480;10.986;2023-07-13T00:26:56;2.55;;;1.58;;
55350;SDS011;62194;49.480;10.986;2023-07-13T00:27:01;1.90;;;1.50;;
55350;SDS011;62194;49.480;10.986;2023-07-13T00:27:09;2.67;;;1.47;;
55350;SDS011;62194;49.480;10.986;2023-07-13T00:27:15;2.67;;;1.43;;
55350;SDS011;62194;49.480;10.986;2023-07-13T00:27:20;2.83;;;1.45;;
55350;SDS011;62194;49.480;10.986;2023-07-13T00:27:25;2.90;;;1.43;;
55350;SDS011;62194;49.480;10.986;2023-07-13T00:27:34;2.73;;;1.41;;
55350;SDS011;62194;49.480;10.986;2023-07-13T00:27:41;2.40;;;1.40;;
55350;SDS011;62194;49.480;10.986;2023-07-13T00:27:47;2.20;;;1.33;;
55350;SDS011;62194;49.480;10.986;2023-07-13T00:27:54;2.18;;;1.38;;
55350;SDS011;62194;49.480;10.986;2023-07-13T00:27:59;2.10;;;1.35;;
55350;SDS011;62194;49.480;10.986;2023-07-13T00:28:04;2.17;;;1.40;;
55350;SDS011;62194;49.480;10.986;2023-07-13T00:28:09;1.80;;;1.40;;
55350;SDS011;62194;49.480;10.986;2023-07-13T00:28:15;1.83;;;1.47;;
55350;SDS011;62194;49.480;10.986;2023-07-13T00:28:20;1.92;;;1.42;;
55350;SDS011;62194;49.480;10.986;2023-07-13T00:28:26;1.97;;;1.50;;
55350;SDS011;62194;49.480;10.986;2023-07-13T00:28:32;2.47;;;1.50;;
55350;SDS011;62194;49.480;10.986;2023-07-13T00:28:38;2.88;;;1.50;;
55350;SDS011;62194;49.480;10.986;2023-07-13T00:28:44;2.75;;;1.52;;
55350;SDS011;62194;49.480;10.986;2023-07-13T00:28:49;2.85;;;1.60;;
55350;SDS011;62194;49.480;10.986;2023-07-13T00:28:54;3.17;;;1.60;;
55350;SDS011;62194;49.480;10.986;2023-07-13T00:28:59;3.10;;;1.57;;
55350;SDS011;62194;49.480;10.986;2023-07-13T00:29:05;2.50;;;1.50;;
55350;SDS011;62194;49.480;10.986;2023-07-13T00:29:16;2.94;;;1.51;;
55350;SDS011;62194;49.480;10.986;2023-07-13T00:29:21;2.85;;;1.40;;
55350;SDS011;62194;49.480;10.986;2023-07-13T00:29:26;2.60;;;1.40;;
55350;SDS011;62194;49.480;10.986;2023-07-13T00:29:31;2.60;;;1.40;;
55350;SDS011;62194;49.480;10.986;2023-07-13T00:29:38;2.54;;;1.48;;
55350;SDS011;62194;49.480;10.986;2023-07-13T00:29:44;2.28;;;1.48;;
55350;SDS011;62194;49.480;10.986;2023-07-13T00:29:49;2.67;;;1.50;;
55350;SDS011;62194;49.480;10.986;2023-07-13T00:29:54;2.53;;;1.43;;
55350;SDS011;62194;49.480;10.986;2023-07-13T00:30:00;2.58;;;1.50;;
55350;SDS011;62194;49.480;10.986;2023-07-13T00:30:05;2.30;;;1.40;;
55350;SDS011;62194;49.480;10.986;2023-07-13T00:30:11;2.70;;;1.40;;
55350;SDS011;62194;49.480;10.986;2023-07-13T00:30:17;2.78;;;1.40;;
55350;SDS011;62194;49.480;10.986;2023-07-13T00:30:22;2.90;;;1.37;;
55350;SDS011;62194;49.480;10.986;2023-07-13T00:30:28;3.13;;;1.30;;
55350;SDS011;62194;49.480;10.986;2023-07-13T00:30:33;3.45;;;1.30;;
55350;SDS011;62194;49.480;10.986;2023-07-13T00:30:38;3.50;;;1.33;;
55350;SDS011;62194;49.480;10.986;2023-07-13T00:30:43;3.07;;;1.20;;
55350;SDS011;62194;49.480;10.986;2023-07-13T00:30:49;2.72;;;1.23;;
55350;SDS011;62194;49.480;10.986;2023-07-13T00:30:54;2.60;;;1.33;;
55350;SDS011;62194;49.480;10.986;2023-07-13T00:31:00;2.43;;;1.37;;
55350;SDS011;62194;49.480;10.986;2023-07-13T00:31:05;2.20;;;1.40;;
55350;SDS011;62194;49.480;10.986;2023-07-13T00:31:11;2.33;;;1.50;;
55350;SDS011;62194;49.480;10.986;2023-07-13T00:31:16;2.27;;;1.50;;
55350;SDS011;62194;49.480;10.986;2023-07-13T00:31:22;2.15;;;1.50;;
55350;SDS011;62194;49.480;10.986;2023-07-13T00:31:27;1.90;;;1.50;;
55350;SDS011;62194;49.480;10.986;2023-07-13T00:31:32;1.93;;;1.60;;
55350;SDS011;62194;49.480;10.986;2023-07-13T00:31:37;1.77;;;1.50;;
55350;SDS011;62194;49.480;10.986;2023-07-13T00:31:43;1.95;;;1.50;;
55350;SDS011;62194;49.480;10.986;2023-07-13T00:31:48;2.13;;;1.50;;
55350;SDS011;62194;49.480;10.986;2023-07-13T00:31:54;2.25;;;1.48;;
55350;SDS011;62194;49.480;10.986;2023-07-13T00:31:59;2.30;;;1.33;;
55350;SDS011;62194;49.480;10.986;2023-07-13T00:32:05;3.13;;;1.42;;
55350;SDS011;62194;49.480;10.986;2023-07-13T00:32:11;3.70;;;1.50;;
55350;SDS011;62194;49.480;10.986;2023-07-13T00:32:16;3.70;;;1.43;;
55350;SDS011;62194;49.480;10.986;2023-07-13T00:32:21;3.80;;;1.50;;
55350;SDS011;62194;49.480;10.986;2023-07-13T00:32:26;3.77;;;1.50;;
55350;SDS011;62194;49.480;10.986;2023-07-13T00:32:32;3.70;;;1.58;;
55350;SDS011;62194;49.480;10.986;2023-07-13T00:32:37;2.80;;;1.43;;
55350;SDS011;62194;49.480;10.986;2023-07-13T00:32:42;2.50;;;1.50;;
55350;SDS011;62194;49.480;10.986;2023-07-13T00:32:47;2.43;;;1.50;;
55350;SDS011;62194;49.480;10.986;2023-07-13T00:32:53;2.22;;;1.55;;
55350;SDS011;62194;49.480;10.986;2023-07-13T00:32:58;2.70;;;1.40;;
55350;SDS011;62194;49.480;10.986;2023-07-13T00:33:04;3.00;;;1.48;;
55350;SDS011;62194;49.480;10.986;2023-07-13T00:33:09;3.13;;;1.50;;
55350;SDS011;62194;49.480;10.986;2023-07-13T00:33:14;3.28;;;1.58;;
55350;SDS011;62194;49.480;10.986;2023-07-13T00:33:20;3.20;;;1.50;;
55350;SDS011;62194;49.480;10.986;2023-07-13T00:33:26;3.37;;;1.50;;
55350;SDS011;62194;49.480;10.986;2023-07-13T00:33:31;2.53;;;1.50;;
55350;SDS011;62194;49.480;10.986;2023-07-13T00:33:38;2.32;;;1.40;;
55350;SDS011;62194;49.480;10.986;2023-07-13T00:33:43;2.13;;;1.30;;
55350;SDS011;62194;49.480;10.986;2023-07-13T00:33:48;2.67;;;1.30;;
55350;SDS011;62194;49.480;10.986;2023-07-13T00:33:54;2.53;;;1.40;;
55350;SDS011;62194;49.480;10.986;2023-07-13T00:33:59;2.37;;;1.37;;
55350;SDS011;62194;49.480;10.986;2023-07-13T00:34:05;2.92;;;1.40;;
55350;SDS011;62194;49.480;10.986;2023-07-13T00:34:10;3.20;;;1.50;;
55350;SDS011;62194;49.480;10.986;2023-07-13T00:34:15;2.87;;;1.40;;
55350;SDS011;62194;49.480;10.986;2023-07-13T00:34:21;2.38;;;1.38;;
55350;SDS011;62194;49.480;10.986;2023-07-13T00:34:26;2.23;;;1.30;;
55350;SDS011;62194;49.480;10.986;2023-07-13T00:34:31;2.60;;;1.37;;
55350;SDS011;62194;49.480;10.986;2023-07-13T00:34:37;2.33;;;1.33;;
55350;SDS011;62194;49.480;10.986;2023-07-13T00:34:43;2.25;;;1.40;;
55350;SDS011;62194;49.480;10.986;2023-07-13T00:34:48;2.23;;;1.40;;
55350;SDS011;62194;49.480;10.986;2023-07-13T00:34:53;2.47;;;1.50;;
55350;SDS011;62194;49.480;10.986;2023-07-13T00:34:58;2.28;;;1.50;;
55350;SDS011;62194;49.480;10.986;2023-07-13T00:35:05;1.97;;;1.47;;
55350;SDS011;62194;49.480;10.986;2023-07-13T00:35:12;1.88;;;1.40;;
55350;SDS011;62194;49.480;10.986;2023-07-13T00:35:18;2.00;;;1.40;;